sensor_id;sensor_type;location;lat;lon;timestamp;pressure;altitude;pressure_sealevel;temperature;humidity
50590;BME280;36547;50.514;30.840;2023-04-23T00:00:58;100018.00;;;11.41;55.56
50590;BME280;36547;50.514;30.840;2023-04-23T00:02:01;100019.72;;;11.42;55.11
50590;BME280;36547;50.514;30.840;2023-04-23T00:03:06;100017.05;;;11.42;55.11
50590;BME280;36547;50.514;30.840;2023-04-23T00:04:11;100024.17;;;11.41;55.07
50590;BME280;36547;50.514;30.840;2023-04-23T00:05:15;100023.15;;;11.44;54.89
50590;BME280;36547;50.514;30.840;2023-04-23T00:06:17;100028.47;;;11.44;54.84
50590;BME280;36547;50.514;30.840;2023-04-23T00:07:21;100023.31;;;11.41;55.09
50590;BME280;36547;50.514;30.840;2023-04-23T00:08:23;100021.63;;;11.40;55.35
50590;BME280;36547;50.514;30.840;2023-04-23T00:09:29;100024.38;;;11.38;55.36
50590;BME280;36547;50.514;30.840;2023-04-23T00:10:32;100030.56;;;11.39;55.47
50590;BME280;36547;50.514;30.840;2023-04-23T00:11:35;100039.48;;;11.38;55.47
50590;BME280;36547;50.514;30.840;2023-04-23T00:12:38;100028.84;;;11.38;55.49
50590;BME280;36547;50.514;30.840;2023-04-23T00:13:41;100032.45;;;11.37;55.62
50590;BME280;36547;50.514;30.840;2023-04-23T00:14:43;100036.05;;;11.36;55.84
50590;BME280;36547;50.514;30.840;2023-04-23T00:15:45;100025.41;;;11.36;55.71
50590;BME280;36547;50.514;30.840;2023-04-23T00:16:48;100029.02;;;11.34;56.13
50590;BME280;36547;50.514;30.840;2023-04-23T00:17:50;100032.61;;;11.33;56.52
50590;BME280;36547;50.514;30.840;2023-04-23T00:18:53;100032.86;;;11.29;56.66
50590;BME280;36547;50.514;30.840;2023-04-23T00:19:55;100031.06;;;11.29;56.34
50590;BME280;36547;50.514;30.840;2023-04-23T00:20:58;100034.66;;;11.28;56.29
50590;BME280;36547;50.514;30.840;2023-04-23T00:22:00;100027.45;;;11.30;56.15
50590;BME280;36547;50.514;30.840;2023-04-23T00:23:02;100031.06;;;11.29;56.56
50590;BME280;36547;50.514;30.840;2023-04-23T00:24:05;100034.66;;;11.28;56.55
50590;BME280;36547;50.514;30.840;2023-04-23T00:25:08;100032.78;;;11.30;56.56
50590;BME280;36547;50.514;30.840;2023-04-23T00:26:11;100031.06;;;11.29;56.51
50590;BME280;36547;50.514;30.840;2023-04-23T00:27:14;100034.66;;;11.28;56.53
50590;BME280;36547;50.514;30.840;2023-04-23T00:28:17;100037.33;;;11.28;56.69
50590;BME280;36547;50.514;30.840;2023-04-23T00:29:22;100030.28;;;11.27;57.04
50590;BME280;36547;50.514;30.840;2023-04-23T00:30:24;100040.06;;;11.27;57.76
50590;BME280;36547;50.514;30.840;2023-04-23T00:31:27;100033.80;;;11.28;57.44
50590;BME280;36547;50.514;30.840;2023-04-23T00:32:29;100033.80;;;11.28;57.34
50590;BME280;36547;50.514;30.840;2023-04-23T00:33:32;100033.80;;;11.28;57.16
50590;BME280;36547;50.514;30.840;2023-04-23T00:34:34;100039.98;;;11.28;57.56
50590;BME280;36547;50.514;30.840;2023-04-23T00:35:36;100039.04;;;11.29;57.86
50590;BME280;36547;50.514;30.840;2023-04-23T00:36:38;100044.64;;;11.25;58.14
50590;BME280;36547;50.514;30.840;2023-04-23T00:37:41;100039.12;;;11.28;58.25
50590;BME280;36547;50.514;30.840;2023-04-23T00:38:44;100038.47;;;11.24;58.25
50590;BME280;36547;50.514;30.840;2023-04-23T00:39:47;100039.33;;;11.25;58.35
50590;BME280;36547;50.514;30.840;2023-04-23T00:40:50;100038.62;;;11.21;58.80
50590;BME280;36547;50.514;30.840;2023-04-23T00:41:52;100036.38;;;11.14;57.95
50590;BME280;36547;50.514;30.840;2023-04-23T00:42:56;100038.96;;;11.15;57.38
50590;BME280;36547;50.514;30.840;2023-04-23T00:43:59;100037.16;;;11.16;58.08
50590;BME280;36547;50.514;30.840;2023-04-23T00:45:01;100032.62;;;11.18;58.82
50590;BME280;36547;50.514;30.840;2023-04-23T00:46:06;100033.48;;;11.18;58.57
50590;BME280;36547;50.514;30.840;2023-04-23T00:47:09;100040.59;;;11.18;58.29
50590;BME280;36547;50.514;30.840;2023-04-23T00:48:12;100039.58;;;11.20;58.17
50590;BME280;36547;50.514;30.840;2023-04-23T00:49:16;100039.66;;;11.19;58.34
50590;BME280;36547;50.514;30.840;2023-04-23T00:50:21;100038.80;;;11.18;58.18
50590;BME280;36547;50.514;30.840;2023-04-23T00:51:23;100037.94;;;11.18;58.39
50590;BME280;36547;50.514;30.840;2023-04-23T00:52:26;100043.17;;;11.19;58.23
50590;BME280;36547;50.514;30.840;2023-04-23T00:53:29;100044.03;;;11.20;58.00
50590;BME280;36547;50.514;30.840;2023-04-23T00:54:31;100036.91;;;11.20;57.97
50590;BME280;36547;50.514;30.840;2023-04-23T00:55:34;100038.02;;;11.16;58.33
50590;BME280;36547;50.514;30.840;2023-04-23T00:56:36;100046.00;;;11.16;58.46
50590;BME280;36547;50.514;30.840;2023-04-23T00:57:40;100046.94;;;11.15;58.87
50590;BME280;36547;50.514;30.840;2023-04-23T00:58:43;100044.20;;;11.17;59.23
50590;BME280;36547;50.514;30.840;2023-04-23T00:59:46;100045.14;;;11.16;58.63
50590;BME280;36547;50.514;30.840;2023-04-23T01:00:49;100038.27;;;11.12;59.18
50590;BME280;36547;50.514;30.840;2023-04-23T01:01:53;100042.73;;;11.11;59.40
50590;BME280;36547;50.514;30.840;2023-04-23T01:02:56;100042.92;;;11.08;59.40
50590;BME280;36547;50.514;30.840;2023-04-23T01:04:00;100042.73;;;11.11;59.34
50590;BME280;36547;50.514;30.840;2023-04-23T01:05:04;100033.06;;;11.10;58.97
50590;BME280;36547;50.514;30.840;2023-04-23T01:06:08;100041.90;;;11.11;58.74
50590;BME280;36547;50.514;30.840;2023-04-23T01:07:11;100041.04;;;11.10;58.75
50590;BME280;36547;50.514;30.840;2023-04-23T01:08:15;100044.56;;;11.11;58.71
50590;BME280;36547;50.514;30.840;2023-04-23T01:09:18;100039.48;;;11.06;59.49
50590;BME280;36547;50.514;30.840;2023-04-23T01:10:22;100034.17;;;11.06;59.39
50590;BME280;36547;50.514;30.840;2023-04-23T01:11:24;100037.77;;;11.05;59.43
50590;BME280;36547;50.514;30.840;2023-04-23T01:12:26;100045.83;;;11.04;59.64
50590;BME280;36547;50.514;30.840;2023-04-23T01:13:29;100036.30;;;10.99;59.47
50590;BME280;36547;50.514;30.840;2023-04-23T01:14:32;100039.81;;;11.00;59.30
50590;BME280;36547;50.514;30.840;2023-04-23T01:15:35;100046.92;;;10.99;59.50
50590;BME280;36547;50.514;30.840;2023-04-23T01:16:38;100041.69;;;10.98;59.33
50590;BME280;36547;50.514;30.840;2023-04-23T01:17:42;100048.81;;;10.97;59.30
50590;BME280;36547;50.514;30.840;2023-04-23T01:18:46;100041.77;;;10.96;60.87
50590;BME280;36547;50.514;30.840;2023-04-23T01:19:48;100038.45;;;10.93;60.70
50590;BME280;36547;50.514;30.840;2023-04-23T01:20:50;100038.28;;;10.96;60.75
50590;BME280;36547;50.514;30.840;2023-04-23T01:21:55;100047.02;;;10.98;60.12
50590;BME280;36547;50.514;30.840;2023-04-23T01:23:02;100039.89;;;10.98;60.10
50590;BME280;36547;50.514;30.840;2023-04-23T01:24:11;100037.60;;;11.08;60.51
50590;BME280;36547;50.514;30.840;2023-04-23T01:25:14;100043.92;;;10.90;61.50
50590;BME280;36547;50.514;30.840;2023-04-23T01:26:16;100047.53;;;10.89;61.30
50590;BME280;36547;50.514;30.840;2023-04-23T01:27:22;100045.65;;;10.91;60.32
50590;BME280;36547;50.514;30.840;2023-04-23T01:28:25;100043.15;;;10.88;60.75
50590;BME280;36547;50.514;30.840;2023-04-23T01:29:28;100047.37;;;10.92;60.09
50590;BME280;36547;50.514;30.840;2023-04-23T01:30:32;100044.09;;;10.87;60.22
50590;BME280;36547;50.514;30.840;2023-04-23T01:31:36;100044.09;;;10.87;60.52
50590;BME280;36547;50.514;30.840;2023-04-23T01:32:39;100047.61;;;10.87;60.57
50590;BME280;36547;50.514;30.840;2023-04-23T01:33:44;100039.63;;;10.87;60.82
50590;BME280;36547;50.514;30.840;2023-04-23T01:34:47;100044.95;;;10.87;60.89
50590;BME280;36547;50.514;30.840;2023-04-23T01:35:50;100044.09;;;10.87;61.06
50590;BME280;36547;50.514;30.840;2023-04-23T01:36:53;100044.09;;;10.87;60.95
50590;BME280;36547;50.514;30.840;2023-04-23T01:37:58;100043.23;;;10.86;61.28
50590;BME280;36547;50.514;30.840;2023-04-23T01:39:02;100048.55;;;10.86;61.26
50590;BME280;36547;50.514;30.840;2023-04-23T01:40:06;100044.25;;;10.84;61.20
50590;BME280;36547;50.514;30.840;2023-04-23T01:41:09;100049.76;;;10.81;61.54
50590;BME280;36547;50.514;30.840;2023-04-23T01:42:12;100045.38;;;10.80;61.48
50590;BME280;36547;50.514;30.840;2023-04-23T01:43:16;100049.76;;;10.81;61.10
50590;BME280;36547;50.514;30.840;2023-04-23T01:44:18;100043.59;;;10.80;61.29
50590;BME280;36547;50.514;30.840;2023-04-23T01:45:21;100053.28;;;10.81;60.66
50590;BME280;36547;50.514;30.840;2023-04-23T01:46:24;100046.98;;;10.82;60.88
50590;BME280;36547;50.514;30.840;2023-04-23T01:47:27;100047.18;;;10.79;61.42
50590;BME280;36547;50.514;30.840;2023-04-23T01:48:29;100048.13;;;10.78;61.75
50590;BME280;36547;50.514;30.840;2023-04-23T01:49:33;100049.92;;;10.78;62.00
50590;BME280;36547;50.514;30.840;2023-04-23T01:50:35;100053.67;;;10.74;61.61
50590;BME280;36547;50.514;30.840;2023-04-23T01:51:38;100053.67;;;10.74;61.49
50590;BME280;36547;50.514;30.840;2023-04-23T01:52:41;100052.73;;;10.75;61.48
50590;BME280;36547;50.514;30.840;2023-04-23T01:53:43;100056.17;;;10.77;61.18
50590;BME280;36547;50.514;30.840;2023-04-23T01:54:46;100057.11;;;10.76;61.22
50590;BME280;36547;50.514;30.840;2023-04-23T01:55:49;100052.73;;;10.75;61.32
50590;BME280;36547;50.514;30.840;2023-04-23T01:56:54;100053.67;;;10.74;61.66
50590;BME280;36547;50.514;30.840;2023-04-23T01:57:56;100058.98;;;10.74;61.53
50590;BME280;36547;50.514;30.840;2023-04-23T01:58:59;100051.02;;;10.74;61.52
50590;BME280;36547;50.514;30.840;2023-04-23T02:00:08;100061.81;;;10.71;61.85
50590;BME280;36547;50.514;30.840;2023-04-23T02:01:14;100053.83;;;10.71;61.65
50590;BME280;36547;50.514;30.840;2023-04-23T02:02:16;100059.23;;;10.69;61.30
50590;BME280;36547;50.514;30.840;2023-04-23T02:03:19;100054.77;;;10.70;61.26
50590;BME280;36547;50.514;30.840;2023-04-23T02:04:22;100059.15;;;10.71;61.37
50590;BME280;36547;50.514;30.840;2023-04-23T02:05:27;100060.01;;;10.71;61.40
50590;BME280;36547;50.514;30.840;2023-04-23T02:06:30;100064.38;;;10.72;61.55
50590;BME280;36547;50.514;30.840;2023-04-23T02:07:33;100066.19;;;10.72;61.53
50590;BME280;36547;50.514;30.840;2023-04-23T02:08:36;100073.22;;;10.73;61.49
50590;BME280;36547;50.514;30.840;2023-04-23T02:09:38;100063.52;;;10.72;61.98
50590;BME280;36547;50.514;30.840;2023-04-23T02:10:41;100061.81;;;10.71;61.97
50590;BME280;36547;50.514;30.840;2023-04-23T02:11:43;100066.34;;;10.69;62.05
50590;BME280;36547;50.514;30.840;2023-04-23T02:12:46;100065.41;;;10.70;61.74
50590;BME280;36547;50.514;30.840;2023-04-23T02:13:49;100062.74;;;10.70;61.95
50590;BME280;36547;50.514;30.840;2023-04-23T02:14:52;100064.63;;;10.68;62.10
50590;BME280;36547;50.514;30.840;2023-04-23T02:15:55;100063.87;;;10.66;62.72
50590;BME280;36547;50.514;30.840;2023-04-23T02:16:58;100062.94;;;10.67;62.28
50590;BME280;36547;50.514;30.840;2023-04-23T02:18:00;100068.25;;;10.67;61.83
50590;BME280;36547;50.514;30.840;2023-04-23T02:19:04;100068.41;;;10.63;62.24
50590;BME280;36547;50.514;30.840;2023-04-23T02:20:08;100064.81;;;10.65;61.88
50590;BME280;36547;50.514;30.840;2023-04-23T02:21:13;100064.81;;;10.65;62.16
50590;BME280;36547;50.514;30.840;2023-04-23T02:22:16;100067.47;;;10.65;62.13
50590;BME280;36547;50.514;30.840;2023-04-23T02:23:19;100070.13;;;10.65;62.12
50590;BME280;36547;50.514;30.840;2023-04-23T02:24:22;100066.69;;;10.62;62.17
50590;BME280;36547;50.514;30.840;2023-04-23T02:25:25;100059.66;;;10.61;61.96
50590;BME280;36547;50.514;30.840;2023-04-23T02:26:27;100066.77;;;10.61;61.89
50590;BME280;36547;50.514;30.840;2023-04-23T02:27:29;100061.53;;;10.59;61.86
50590;BME280;36547;50.514;30.840;2023-04-23T02:28:32;100067.63;;;10.61;62.22
50590;BME280;36547;50.514;30.840;2023-04-23T02:29:34;100064.97;;;10.61;62.03
50590;BME280;36547;50.514;30.840;2023-04-23T02:30:37;100069.34;;;10.62;62.13
50590;BME280;36547;50.514;30.840;2023-04-23T02:31:40;100065.91;;;10.60;62.11
50590;BME280;36547;50.514;30.840;2023-04-23T02:32:42;100066.84;;;10.59;62.43
50590;BME280;36547;50.514;30.840;2023-04-23T02:33:45;100068.88;;;10.54;62.56
50590;BME280;36547;50.514;30.840;2023-04-23T02:34:48;100069.73;;;10.55;62.55
50590;BME280;36547;50.514;30.840;2023-04-23T02:35:50;100064.42;;;10.55;63.20
50590;BME280;36547;50.514;30.840;2023-04-23T02:36:53;100076.95;;;10.53;62.92
50590;BME280;36547;50.514;30.840;2023-04-23T02:37:55;100068.20;;;10.51;62.65
50590;BME280;36547;50.514;30.840;2023-04-23T02:38:57;100074.30;;;10.53;62.21
50590;BME280;36547;50.514;30.840;2023-04-23T02:40:00;100077.78;;;10.53;62.34
50590;BME280;36547;50.514;30.840;2023-04-23T02:41:02;100075.91;;;10.55;62.68
50590;BME280;36547;50.514;30.840;2023-04-23T02:42:04;100079.50;;;10.54;63.05
50590;BME280;36547;50.514;30.840;2023-04-23T02:43:07;100076.09;;;10.52;63.17
50590;BME280;36547;50.514;30.840;2023-04-23T02:44:09;100074.37;;;10.51;62.87
50590;BME280;36547;50.514;30.840;2023-04-23T02:45:12;100075.31;;;10.50;62.50
50590;BME280;36547;50.514;30.840;2023-04-23T02:46:15;100076.25;;;10.49;62.33
50590;BME280;36547;50.514;30.840;2023-04-23T02:47:17;100078.83;;;10.51;62.45
50590;BME280;36547;50.514;30.840;2023-04-23T02:48:20;100069.22;;;10.48;62.97
50590;BME280;36547;50.514;30.840;2023-04-23T02:49:22;100078.28;;;10.44;63.46
50590;BME280;36547;50.514;30.840;2023-04-23T02:50:24;100072.97;;;10.44;62.94
50590;BME280;36547;50.514;30.840;2023-04-23T02:51:27;100073.98;;;10.42;62.97
50590;BME280;36547;50.514;30.840;2023-04-23T02:52:29;100081.88;;;10.43;63.57
50590;BME280;36547;50.514;30.840;2023-04-23T02:53:31;100076.41;;;10.46;63.26
50590;BME280;36547;50.514;30.840;2023-04-23T02:54:34;100072.97;;;10.44;62.96
50590;BME280;36547;50.514;30.840;2023-04-23T02:55:36;100081.88;;;10.43;62.83
50590;BME280;36547;50.514;30.840;2023-04-23T02:56:38;100079.30;;;10.42;62.90
50590;BME280;36547;50.514;30.840;2023-04-23T02:57:40;100082.88;;;10.41;62.67
50590;BME280;36547;50.514;30.840;2023-04-23T02:58:44;100076.90;;;10.37;63.17
50590;BME280;36547;50.514;30.840;2023-04-23T02:59:46;100078.77;;;10.35;63.38
50590;BME280;36547;50.514;30.840;2023-04-23T03:00:50;100077.65;;;10.39;62.92
50590;BME280;36547;50.514;30.840;2023-04-23T03:01:53;100083.83;;;10.40;62.76
50590;BME280;36547;50.514;30.840;2023-04-23T03:02:55;100078.70;;;10.37;62.64
50590;BME280;36547;50.514;30.840;2023-04-23T03:03:59;100077.84;;;10.36;62.95
50590;BME280;36547;50.514;30.840;2023-04-23T03:05:04;100074.31;;;10.36;63.24
50590;BME280;36547;50.514;30.840;2023-04-23T03:06:07;100077.05;;;10.34;63.68
50590;BME280;36547;50.514;30.840;2023-04-23T03:07:11;100080.64;;;10.33;63.56
50590;BME280;36547;50.514;30.840;2023-04-23T03:08:13;100076.19;;;10.34;62.95
50590;BME280;36547;50.514;30.840;2023-04-23T03:09:15;100089.39;;;10.35;63.17
50590;BME280;36547;50.514;30.840;2023-04-23T03:10:18;100089.47;;;10.34;63.74
50590;BME280;36547;50.514;30.840;2023-04-23T03:11:21;100083.38;;;10.32;64.21
50590;BME280;36547;50.514;30.840;2023-04-23T03:12:23;100084.23;;;10.32;63.34
50590;BME280;36547;50.514;30.840;2023-04-23T03:13:27;100089.39;;;10.35;63.49
50590;BME280;36547;50.514;30.840;2023-04-23T03:14:29;100089.39;;;10.35;63.39
50590;BME280;36547;50.514;30.840;2023-04-23T03:15:32;100084.95;;;10.36;63.45
50590;BME280;36547;50.514;30.840;2023-04-23T03:16:35;100084.95;;;10.36;63.82
50590;BME280;36547;50.514;30.840;2023-04-23T03:17:37;100092.05;;;10.35;64.12
50590;BME280;36547;50.514;30.840;2023-04-23T03:18:41;100094.70;;;10.35;64.53
50590;BME280;36547;50.514;30.840;2023-04-23T03:19:43;100090.26;;;10.36;64.70
50590;BME280;36547;50.514;30.840;2023-04-23T03:20:46;100099.16;;;10.35;64.47
50590;BME280;36547;50.514;30.840;2023-04-23T03:21:49;100100.02;;;10.35;64.12
50590;BME280;36547;50.514;30.840;2023-04-23T03:22:52;100100.88;;;10.36;63.87
50590;BME280;36547;50.514;30.840;2023-04-23T03:23:55;100091.12;;;10.36;63.76
50590;BME280;36547;50.514;30.840;2023-04-23T03:24:57;100101.74;;;10.36;64.01
50590;BME280;36547;50.514;30.840;2023-04-23T03:26:00;100096.43;;;10.36;64.35
50590;BME280;36547;50.514;30.840;2023-04-23T03:27:02;100102.75;;;10.34;64.31
50590;BME280;36547;50.514;30.840;2023-04-23T03:28:05;100091.12;;;10.36;64.15
50590;BME280;36547;50.514;30.840;2023-04-23T03:29:07;100107.98;;;10.35;64.04
50590;BME280;36547;50.514;30.840;2023-04-23T03:30:11;100105.48;;;10.32;64.47
50590;BME280;36547;50.514;30.840;2023-04-23T03:31:13;100105.48;;;10.32;64.33
50590;BME280;36547;50.514;30.840;2023-04-23T03:32:16;100101.03;;;10.33;64.01
50590;BME280;36547;50.514;30.840;2023-04-23T03:33:18;100109.86;;;10.33;63.67
50590;BME280;36547;50.514;30.840;2023-04-23T03:34:21;100114.23;;;10.34;63.56
50590;BME280;36547;50.514;30.840;2023-04-23T03:35:24;100109.94;;;10.32;63.87
50590;BME280;36547;50.514;30.840;2023-04-23T03:36:28;100111.66;;;10.33;64.37
50590;BME280;36547;50.514;30.840;2023-04-23T03:37:31;100113.45;;;10.32;64.41
50590;BME280;36547;50.514;30.840;2023-04-23T03:38:33;100118.62;;;10.35;63.95
50590;BME280;36547;50.514;30.840;2023-04-23T03:39:36;100115.02;;;10.36;63.83
50590;BME280;36547;50.514;30.840;2023-04-23T03:40:42;100111.43;;;10.37;63.74
50590;BME280;36547;50.514;30.840;2023-04-23T03:41:44;100119.55;;;10.34;64.19
50590;BME280;36547;50.514;30.840;2023-04-23T03:42:47;100110.64;;;10.35;64.67
50590;BME280;36547;50.514;30.840;2023-04-23T03:43:51;100115.95;;;10.35;65.21
50590;BME280;36547;50.514;30.840;2023-04-23T03:44:59;100122.20;;;10.34;65.42
50590;BME280;36547;50.514;30.840;2023-04-23T03:46:02;100113.45;;;10.32;65.17
50590;BME280;36547;50.514;30.840;2023-04-23T03:47:07;100119.55;;;10.34;64.94
50590;BME280;36547;50.514;30.840;2023-04-23T03:48:10;100118.54;;;10.37;65.10
50590;BME280;36547;50.514;30.840;2023-04-23T03:49:13;100115.02;;;10.36;64.68
50590;BME280;36547;50.514;30.840;2023-04-23T03:50:15;100119.47;;;10.36;64.98
50590;BME280;36547;50.514;30.840;2023-04-23T03:51:18;100115.02;;;10.36;65.28
50590;BME280;36547;50.514;30.840;2023-04-23T03:52:22;100121.98;;;10.39;65.09
50590;BME280;36547;50.514;30.840;2023-04-23T03:53:25;100121.20;;;10.37;65.28
50590;BME280;36547;50.514;30.840;2023-04-23T03:54:42;100121.98;;;10.39;65.83
50590;BME280;36547;50.514;30.840;2023-04-23T03:55:52;100113.45;;;10.49;65.10
50590;BME280;36547;50.514;30.840;2023-04-23T03:56:55;100125.65;;;10.36;64.87
50590;BME280;36547;50.514;30.840;2023-04-23T03:57:59;100122.92;;;10.38;64.75
50590;BME280;36547;50.514;30.840;2023-04-23T03:59:04;100125.47;;;10.39;64.46
50590;BME280;36547;50.514;30.840;2023-04-23T04:00:07;100128.91;;;10.41;64.30
50590;BME280;36547;50.514;30.840;2023-04-23T04:01:12;100127.89;;;10.44;63.86
50590;BME280;36547;50.514;30.840;2023-04-23T04:02:15;100131.41;;;10.44;63.77
50590;BME280;36547;50.514;30.840;2023-04-23T04:03:18;100131.34;;;10.46;63.97
50590;BME280;36547;50.514;30.840;2023-04-23T04:04:20;100133.92;;;10.47;64.25
50590;BME280;36547;50.514;30.840;2023-04-23T04:05:25;100133.84;;;10.49;65.06
50590;BME280;36547;50.514;30.840;2023-04-23T04:06:28;100134.70;;;10.49;64.89
50590;BME280;36547;50.514;30.840;2023-04-23T04:07:31;100140.02;;;10.49;65.63
50590;BME280;36547;50.514;30.840;2023-04-23T04:08:33;100141.73;;;10.50;65.80
50590;BME280;36547;50.514;30.840;2023-04-23T04:09:37;100141.73;;;10.50;65.72
50590;BME280;36547;50.514;30.840;2023-04-23T04:10:40;100135.48;;;10.51;65.82
50590;BME280;36547;50.514;30.840;2023-04-23T04:11:42;100141.66;;;10.52;66.00
50590;BME280;36547;50.514;30.840;2023-04-23T04:12:45;100146.87;;;10.53;66.29
50590;BME280;36547;50.514;30.840;2023-04-23T04:13:47;100145.07;;;10.54;65.91
50590;BME280;36547;50.514;30.840;2023-04-23T04:14:50;100146.72;;;10.56;65.35
50590;BME280;36547;50.514;30.840;2023-04-23T04:15:52;100143.13;;;10.57;65.27
50590;BME280;36547;50.514;30.840;2023-04-23T04:16:54;100139.53;;;10.58;66.13
50590;BME280;36547;50.514;30.840;2023-04-23T04:17:58;100143.98;;;10.58;66.11
50590;BME280;36547;50.514;30.840;2023-04-23T04:19:01;100148.44;;;10.57;66.85
50590;BME280;36547;50.514;30.840;2023-04-23T04:20:05;100154.46;;;10.61;66.27
50590;BME280;36547;50.514;30.840;2023-04-23T04:21:09;100153.45;;;10.63;65.81
50590;BME280;36547;50.514;30.840;2023-04-23T04:22:11;100149.85;;;10.65;64.30
50590;BME280;36547;50.514;30.840;2023-04-23T04:23:13;100153.30;;;10.67;64.46
50590;BME280;36547;50.514;30.840;2023-04-23T04:24:16;100144.35;;;10.68;64.59
50590;BME280;36547;50.514;30.840;2023-04-23T04:25:20;100149.52;;;10.71;63.99
50590;BME280;36547;50.514;30.840;2023-04-23T04:26:22;100148.58;;;10.72;63.45
50590;BME280;36547;50.514;30.840;2023-04-23T04:27:24;100142.33;;;10.73;63.94
50590;BME280;36547;50.514;30.840;2023-04-23T04:28:27;100152.02;;;10.74;64.17
50590;BME280;36547;50.514;30.840;2023-04-23T04:29:29;100152.80;;;10.76;63.99
50590;BME280;36547;50.514;30.840;2023-04-23T04:30:32;100150.93;;;10.78;63.92
50590;BME280;36547;50.514;30.840;2023-04-23T04:31:34;100151.71;;;10.80;63.42
50590;BME280;36547;50.514;30.840;2023-04-23T04:32:38;100152.49;;;10.82;63.08
50590;BME280;36547;50.514;30.840;2023-04-23T04:33:40;100151.52;;;10.83;63.03
50590;BME280;36547;50.514;30.840;2023-04-23T04:34:43;100155.75;;;10.87;63.27
50590;BME280;36547;50.514;30.840;2023-04-23T04:35:46;100156.53;;;10.89;63.42
50590;BME280;36547;50.514;30.840;2023-04-23T04:36:48;100156.45;;;10.90;63.50
50590;BME280;36547;50.514;30.840;2023-04-23T04:37:50;100155.44;;;10.93;62.60
50590;BME280;36547;50.514;30.840;2023-04-23T04:38:53;100157.16;;;10.94;62.30
50590;BME280;36547;50.514;30.840;2023-04-23T04:39:56;100155.28;;;10.96;61.86
50590;BME280;36547;50.514;30.840;2023-04-23T04:40:59;100156.89;;;10.98;61.54
50590;BME280;36547;50.514;30.840;2023-04-23T04:42:03;100162.13;;;11.00;61.25
50590;BME280;36547;50.514;30.840;2023-04-23T04:43:06;100156.73;;;11.02;61.20
50590;BME280;36547;50.514;30.840;2023-04-23T04:44:09;100159.31;;;11.03;62.07
50590;BME280;36547;50.514;30.840;2023-04-23T04:45:12;100157.52;;;11.04;61.42
50590;BME280;36547;50.514;30.840;2023-04-23T04:46:15;100167.13;;;11.06;61.08
50590;BME280;36547;50.514;30.840;2023-04-23T04:47:18;100168.85;;;11.07;60.32
50590;BME280;36547;50.514;30.840;2023-04-23T04:48:20;100168.78;;;11.09;60.59
50590;BME280;36547;50.514;30.840;2023-04-23T04:49:22;100156.34;;;11.09;60.41
50590;BME280;36547;50.514;30.840;2023-04-23T04:50:25;100160.61;;;11.12;60.48
50590;BME280;36547;50.514;30.840;2023-04-23T04:51:28;100164.98;;;11.13;60.43
50590;BME280;36547;50.514;30.840;2023-04-23T04:52:30;100165.69;;;11.16;60.56
50590;BME280;36547;50.514;30.840;2023-04-23T04:53:32;100163.03;;;11.16;60.51
50590;BME280;36547;50.514;30.840;2023-04-23T04:54:35;100168.27;;;11.18;60.87
50590;BME280;36547;50.514;30.840;2023-04-23T04:55:37;100171.79;;;11.18;60.23
50590;BME280;36547;50.514;30.840;2023-04-23T04:56:39;100170.84;;;11.19;60.21
50590;BME280;36547;50.514;30.840;2023-04-23T04:57:42;100168.97;;;11.21;60.29
50590;BME280;36547;50.514;30.840;2023-04-23T04:58:45;100175.07;;;11.23;60.20
50590;BME280;36547;50.514;30.840;2023-04-23T04:59:48;100173.27;;;11.24;60.24
50590;BME280;36547;50.514;30.840;2023-04-23T05:00:51;100174.02;;;11.26;60.47
50590;BME280;36547;50.514;30.840;2023-04-23T05:01:53;100178.48;;;11.25;61.09
50590;BME280;36547;50.514;30.840;2023-04-23T05:02:57;100174.80;;;11.28;61.17
50590;BME280;36547;50.514;30.840;2023-04-23T05:04:00;100169.40;;;11.29;60.68
50590;BME280;36547;50.514;30.840;2023-04-23T05:05:03;100175.58;;;11.30;60.30
50590;BME280;36547;50.514;30.840;2023-04-23T05:06:06;100175.50;;;11.31;59.97
50590;BME280;36547;50.514;30.840;2023-04-23T05:07:09;100170.09;;;11.33;59.95
50590;BME280;36547;50.514;30.840;2023-04-23T05:08:11;100176.13;;;11.37;60.15
50590;BME280;36547;50.514;30.840;2023-04-23T05:09:13;100177.84;;;11.38;60.02
50590;BME280;36547;50.514;30.840;2023-04-23T05:10:16;100184.88;;;11.39;60.20
50590;BME280;36547;50.514;30.840;2023-04-23T05:11:19;100181.28;;;11.40;59.88
50590;BME280;36547;50.514;30.840;2023-04-23T05:12:22;100184.69;;;11.42;60.25
50590;BME280;36547;50.514;30.840;2023-04-23T05:13:24;100170.53;;;11.41;60.32
50590;BME280;36547;50.514;30.840;2023-04-23T05:14:26;100178.34;;;11.44;60.08
50590;BME280;36547;50.514;30.840;2023-04-23T05:15:28;100184.61;;;11.43;59.89
50590;BME280;36547;50.514;30.840;2023-04-23T05:16:33;100179.20;;;11.45;59.57
50590;BME280;36547;50.514;30.840;2023-04-23T05:17:36;100179.20;;;11.45;59.88
50590;BME280;36547;50.514;30.840;2023-04-23T05:18:39;100179.05;;;11.48;59.64
50590;BME280;36547;50.514;30.840;2023-04-23T05:19:42;100176.38;;;11.48;59.75
50590;BME280;36547;50.514;30.840;2023-04-23T05:20:45;100180.77;;;11.49;60.20
50590;BME280;36547;50.514;30.840;2023-04-23T05:21:47;100183.34;;;11.50;59.61
50590;BME280;36547;50.514;30.840;2023-04-23T05:22:49;100188.59;;;11.52;60.15
50590;BME280;36547;50.514;30.840;2023-04-23T05:23:55;100187.64;;;11.53;60.18
50590;BME280;36547;50.514;30.840;2023-04-23T05:24:57;100192.77;;;11.56;60.31
50590;BME280;36547;50.514;30.840;2023-04-23T05:26:00;100187.29;;;11.59;60.41